sensor_id;sensor_type;location;lat;lon;timestamp;pressure;altitude;pressure_sealevel;temperature;humidity
65173;BME280;51758;52.218;5.172;2022-11-20T00:00:54;101328.41;;;-2.46;100.00
65173;BME280;51758;52.218;5.172;2022-11-20T00:03:22;101328.50;;;-2.47;100.00
65173;BME280;51758;52.218;5.172;2022-11-20T00:05:50;101334.59;;;-2.50;100.00
65173;BME280;51758;52.218;5.172;2022-11-20T00:08:17;101333.84;;;-2.52;100.00
65173;BME280;51758;52.218;5.172;2022-11-20T00:10:45;101327.81;;;-2.51;100.00
65173;BME280;51758;52.218;5.172;2022-11-20T00:13:14;101332.03;;;-2.50;100.00
65173;BME280;51758;52.218;5.172;2022-11-20T00:15:42;101335.41;;;-2.49;100.00
65173;BME280;51758;52.218;5.172;2022-11-20T00:18:10;101331.22;;;-2.50;100.00
65173;BME280;51758;52.218;5.172;2022-11-20T00:20:37;101322.72;;;-2.51;100.00
65173;BME280;51758;52.218;5.172;2022-11-20T00:23:05;101316.97;;;-2.55;100.00
65173;BME280;51758;52.218;5.172;2022-11-20T00:25:33;101319.53;;;-2.55;100.00
65173;BME280;51758;52.218;5.172;2022-11-20T00:28:01;101319.53;;;-2.55;100.00
65173;BME280;51758;52.218;5.172;2022-11-20T00:30:31;101325.28;;;-2.51;100.00
65173;BME280;51758;52.218;5.172;2022-11-20T00:32:58;101318.63;;;-2.54;100.00
65173;BME280;51758;52.218;5.172;2022-11-20T00:35:26;101313.06;;;-2.62;100.00
65173;BME280;51758;52.218;5.172;2022-11-20T00:37:53;101316.28;;;-2.58;100.00
65173;BME280;51758;52.218;5.172;2022-11-20T00:40:21;101317.19;;;-2.59;100.00
65173;BME280;51758;52.218;5.172;2022-11-20T00:42:49;101319.00;;;-2.61;100.00
65173;BME280;51758;52.218;5.172;2022-11-20T00:45:16;101316.59;;;-2.64;100.00
65173;BME280;51758;52.218;5.172;2022-11-20T00:47:45;101310.84;;;-2.68;100.00
65173;BME280;51758;52.218;5.172;2022-11-20T00:50:13;101311.09;;;-2.72;100.00
65173;BME280;51758;52.218;5.172;2022-11-20T00:52:41;101308.53;;;-2.72;100.00
65173;BME280;51758;52.218;5.172;2022-11-20T00:55:08;101300.94;;;-2.74;100.00
65173;BME280;51758;52.218;5.172;2022-11-20T00:57:36;101303.66;;;-2.77;100.00
65173;BME280;51758;52.218;5.172;2022-11-20T01:00:05;101300.19;;;-2.76;100.00
65173;BME280;51758;52.218;5.172;2022-11-20T01:02:33;101299.97;;;-2.71;100.00
65173;BME280;51758;52.218;5.172;2022-11-20T01:05:02;101306.06;;;-2.74;100.00
65173;BME280;51758;52.218;5.172;2022-11-20T01:07:30;101304.97;;;-2.85;100.00
65173;BME280;51758;52.218;5.172;2022-11-20T01:09:59;101306.28;;;-2.78;100.00
65173;BME280;51758;52.218;5.172;2022-11-20T01:12:27;101300.72;;;-2.69;100.00
65173;BME280;51758;52.218;5.172;2022-11-20T01:14:54;101292.88;;;-2.66;100.00
65173;BME280;51758;52.218;5.172;2022-11-20T01:17:22;101303.75;;;-2.63;100.00
65173;BME280;51758;52.218;5.172;2022-11-20T01:19:50;101301.47;;;-2.67;100.00
65173;BME280;51758;52.218;5.172;2022-11-20T01:22:19;101300.78;;;-2.71;100.00
65173;BME280;51758;52.218;5.172;2022-11-20T01:24:46;101298.47;;;-2.75;100.00
65173;BME280;51758;52.218;5.172;2022-11-20T01:27:14;101298.53;;;-2.77;100.00
65173;BME280;51758;52.218;5.172;2022-11-20T01:29:42;101296.06;;;-2.78;100.00
65173;BME280;51758;52.218;5.172;2022-11-20T01:32:09;101292.88;;;-2.82;100.00
65173;BME280;51758;52.218;5.172;2022-11-20T01:34:37;101290.38;;;-2.83;100.00
65173;BME280;51758;52.218;5.172;2022-11-20T01:37:05;101287.16;;;-2.87;100.00
65173;BME280;51758;52.218;5.172;2022-11-20T01:39:34;101288.00;;;-2.86;100.00
65173;BME280;51758;52.218;5.172;2022-11-20T01:42:02;101287.25;;;-2.89;100.00
65173;BME280;51758;52.218;5.172;2022-11-20T01:44:50;101286.50;;;-2.91;100.00
65173;BME280;51758;52.218;5.172;2022-11-20T01:47:23;101278.00;;;-2.91;100.00
65173;BME280;51758;52.218;5.172;2022-11-20T01:49:55;101278.94;;;-2.92;100.00
65173;BME280;51758;52.218;5.172;2022-11-20T01:52:26;101284.19;;;-2.95;100.00
65173;BME280;51758;52.218;5.172;2022-11-20T01:55:00;101279.09;;;-2.95;100.00
65173;BME280;51758;52.218;5.172;2022-11-20T01:57:30;101283.63;;;-2.84;100.00
65173;BME280;51758;52.218;5.172;2022-11-20T02:00:02;101282.50;;;-2.79;100.00
65173;BME280;51758;52.218;5.172;2022-11-20T02:02:31;101282.50;;;-2.79;100.00
65173;BME280;51758;52.218;5.172;2022-11-20T02:05:04;101277.53;;;-2.82;100.00
65173;BME280;51758;52.218;5.172;2022-11-20T02:07:37;101263.59;;;-2.92;100.00
65173;BME280;51758;52.218;5.172;2022-11-20T02:10:07;101231.84;;;-3.19;100.00
65173;BME280;51758;52.218;5.172;2022-11-20T02:12:34;101272.09;;;-2.92;100.00
65173;BME280;51758;52.218;5.172;2022-11-20T02:15:20;101274.88;;;-2.96;100.00
65173;BME280;51758;52.218;5.172;2022-11-20T02:17:54;101267.38;;;-2.99;100.00
65173;BME280;51758;52.218;5.172;2022-11-20T02:20:22;101275.03;;;-2.99;100.00
65173;BME280;51758;52.218;5.172;2022-11-20T02:22:54;101237.28;;;-3.10;100.00
65173;BME280;51758;52.218;5.172;2022-11-20T02:25:26;101264.16;;;-3.03;100.00
65173;BME280;51758;52.218;5.172;2022-11-20T02:27:55;101266.81;;;-3.04;100.00
65173;BME280;51758;52.218;5.172;2022-11-20T02:30:23;101264.06;;;-3.01;100.00
65173;BME280;51758;52.218;5.172;2022-11-20T02:32:51;101264.06;;;-3.01;100.00
65173;BME280;51758;52.218;5.172;2022-11-20T02:35:44;101261.53;;;-3.01;100.00
65173;BME280;51758;52.218;5.172;2022-11-20T02:38:13;101254.75;;;-3.02;100.00
65173;BME280;51758;52.218;5.172;2022-11-20T02:40:42;101247.16;;;-3.04;100.00
65173;BME280;51758;52.218;5.172;2022-11-20T02:43:10;101240.06;;;-3.14;100.00
65173;BME280;51758;52.218;5.172;2022-11-20T02:45:38;101250.66;;;-3.05;100.00
65173;BME280;51758;52.218;5.172;2022-11-20T02:48:06;101255.09;;;-3.08;100.00
65173;BME280;51758;52.218;5.172;2022-11-20T02:50:37;101266.28;;;-3.11;100.00
65173;BME280;51758;52.218;5.172;2022-11-20T02:53:04;101257.72;;;-3.10;100.00
65173;BME280;51758;52.218;5.172;2022-11-20T02:55:32;101257.81;;;-3.11;100.00
65173;BME280;51758;52.218;5.172;2022-11-20T02:58:01;101258.63;;;-3.11;100.00
65173;BME280;51758;52.218;5.172;2022-11-20T03:00:29;101254.50;;;-3.13;100.00
65173;BME280;51758;52.218;5.172;2022-11-20T03:02:58;101246.84;;;-3.13;100.00
65173;BME280;51758;52.218;5.172;2022-11-20T03:05:25;101248.81;;;-3.18;100.00
65173;BME280;51758;52.218;5.172;2022-11-20T03:07:53;101239.50;;;-3.19;100.00
65173;BME280;51758;52.218;5.172;2022-11-20T03:10:21;101235.16;;;-3.17;100.00
65173;BME280;51758;52.218;5.172;2022-11-20T03:12:52;101237.53;;;-3.14;100.00
65173;BME280;51758;52.218;5.172;2022-11-20T03:15:22;101233.75;;;-3.07;100.00
65173;BME280;51758;52.218;5.172;2022-11-20T03:17:53;101232.19;;;-3.10;100.00
65173;BME280;51758;52.218;5.172;2022-11-20T03:20:20;101227.22;;;-3.13;100.00
65173;BME280;51758;52.218;5.172;2022-11-20T03:22:48;101219.72;;;-3.16;100.00
65173;BME280;51758;52.218;5.172;2022-11-20T03:25:16;101228.13;;;-3.14;100.00
65173;BME280;51758;52.218;5.172;2022-11-20T03:27:43;101223.09;;;-3.15;100.00
65173;BME280;51758;52.218;5.172;2022-11-20T03:30:12;101219.00;;;-3.18;100.00
65173;BME280;51758;52.218;5.172;2022-11-20T03:32:41;101221.72;;;-3.21;100.00
65173;BME280;51758;52.218;5.172;2022-11-20T03:35:09;101212.31;;;-3.20;100.00
65173;BME280;51758;52.218;5.172;2022-11-20T03:37:36;101219.16;;;-3.21;100.00
65173;BME280;51758;52.218;5.172;2022-11-20T03:40:05;101220.88;;;-3.21;100.00
65173;BME280;51758;52.218;5.172;2022-11-20T03:42:33;101222.69;;;-3.23;100.00
65173;BME280;51758;52.218;5.172;2022-11-20T03:45:14;101216.69;;;-3.22;100.00
65173;BME280;51758;52.218;5.172;2022-11-20T03:47:43;101206.63;;;-3.26;100.00
65173;BME280;51758;52.218;5.172;2022-11-20T03:50:12;101210.16;;;-3.28;100.00
65173;BME280;51758;52.218;5.172;2022-11-20T03:52:40;101207.44;;;-3.25;100.00
65173;BME280;51758;52.218;5.172;2022-11-20T03:55:08;101210.00;;;-3.25;100.00
65173;BME280;51758;52.218;5.172;2022-11-20T03:57:36;101208.44;;;-3.28;100.00
65173;BME280;51758;52.218;5.172;2022-11-20T04:00:05;101205.16;;;-3.30;100.00
65173;BME280;51758;52.218;5.172;2022-11-20T04:02:32;101188.66;;;-3.40;100.00
65173;BME280;51758;52.218;5.172;2022-11-20T04:05:01;101196.22;;;-3.38;100.00
65173;BME280;51758;52.218;5.172;2022-11-20T04:07:29;101201.34;;;-3.38;100.00
65173;BME280;51758;52.218;5.172;2022-11-20T04:09:57;101191.19;;;-3.40;100.00
65173;BME280;51758;52.218;5.172;2022-11-20T04:12:25;101172.16;;;-3.50;100.00
65173;BME280;51758;52.218;5.172;2022-11-20T04:14:53;101187.09;;;-3.42;100.00
65173;BME280;51758;52.218;5.172;2022-11-20T04:17:20;101180.50;;;-3.46;100.00
65173;BME280;51758;52.218;5.172;2022-11-20T04:19:48;101176.28;;;-3.47;100.00
65173;BME280;51758;52.218;5.172;2022-11-20T04:22:17;101182.06;;;-3.44;100.00
65173;BME280;51758;52.218;5.172;2022-11-20T04:24:45;101170.38;;;-3.48;100.00
65173;BME280;51758;52.218;5.172;2022-11-20T04:27:12;101171.34;;;-3.50;100.00
65173;BME280;51758;52.218;5.172;2022-11-20T04:29:40;101167.41;;;-3.56;100.00
65173;BME280;51758;52.218;5.172;2022-11-20T04:32:08;101166.56;;;-3.56;100.00
65173;BME280;51758;52.218;5.172;2022-11-20T04:34:36;101170.19;;;-3.61;100.00
65173;BME280;51758;52.218;5.172;2022-11-20T04:37:03;101172.50;;;-3.56;100.00
65173;BME280;51758;52.218;5.172;2022-11-20T04:39:32;101174.38;;;-3.59;100.00
65173;BME280;51758;52.218;5.172;2022-11-20T04:42:00;101169.50;;;-3.64;100.00
65173;BME280;51758;52.218;5.172;2022-11-20T04:44:45;101180.59;;;-3.65;100.00
65173;BME280;51758;52.218;5.172;2022-11-20T04:47:13;101170.66;;;-3.70;100.00
65173;BME280;51758;52.218;5.172;2022-11-20T04:49:41;101173.03;;;-3.67;100.00
65173;BME280;51758;52.218;5.172;2022-11-20T04:52:09;101182.59;;;-3.70;100.00
65173;BME280;51758;52.218;5.172;2022-11-20T04:54:38;101182.97;;;-3.78;100.00
65173;BME280;51758;52.218;5.172;2022-11-20T04:57:05;101173.44;;;-3.74;100.00
65173;BME280;51758;52.218;5.172;2022-11-20T04:59:40;101165.78;;;-3.74;100.00
65173;BME280;51758;52.218;5.172;2022-11-20T05:02:07;101169.31;;;-3.77;100.00
65173;BME280;51758;52.218;5.172;2022-11-20T05:04:35;101171.78;;;-3.75;100.00
65173;BME280;51758;52.218;5.172;2022-11-20T05:07:03;101166.75;;;-3.77;100.00
65173;BME280;51758;52.218;5.172;2022-11-20T05:09:31;101158.47;;;-3.80;100.00
65173;BME280;51758;52.218;5.172;2022-11-20T05:12:00;101152.75;;;-3.85;100.00
65173;BME280;51758;52.218;5.172;2022-11-20T05:14:28;101139.94;;;-3.84;100.00
65173;BME280;51758;52.218;5.172;2022-11-20T05:16:55;101135.66;;;-3.83;100.00
65173;BME280;51758;52.218;5.172;2022-11-20T05:19:23;101134.91;;;-3.85;100.00
65173;BME280;51758;52.218;5.172;2022-11-20T05:21:51;101134.22;;;-3.89;100.00
65173;BME280;51758;52.218;5.172;2022-11-20T05:24:18;101140.06;;;-3.87;100.00
65173;BME280;51758;52.218;5.172;2022-11-20T05:26:46;101130.03;;;-3.90;100.00
65173;BME280;51758;52.218;5.172;2022-11-20T05:29:15;101125.25;;;-3.96;100.00
65173;BME280;51758;52.218;5.172;2022-11-20T05:31:43;101132.06;;;-3.97;100.00
65173;BME280;51758;52.218;5.172;2022-11-20T05:34:10;101131.25;;;-3.97;100.00
65173;BME280;51758;52.218;5.172;2022-11-20T05:36:38;101128.91;;;-4.02;100.00
65173;BME280;51758;52.218;5.172;2022-11-20T05:39:06;101139.81;;;-3.98;100.00
65173;BME280;51758;52.218;5.172;2022-11-20T05:41:33;101134.56;;;-4.12;100.00
65173;BME280;51758;52.218;5.172;2022-11-20T05:44:01;101141.47;;;-4.14;100.00
65173;BME280;51758;52.218;5.172;2022-11-20T05:46:30;101140.28;;;-4.07;100.00
65173;BME280;51758;52.218;5.172;2022-11-20T05:48:58;101139.13;;;-4.02;100.00
65173;BME280;51758;52.218;5.172;2022-11-20T05:51:26;101149.25;;;-4.00;100.00
65173;BME280;51758;52.218;5.172;2022-11-20T05:53:56;101146.09;;;-4.05;100.00
65173;BME280;51758;52.218;5.172;2022-11-20T05:56:23;101152.03;;;-4.05;100.00
65173;BME280;51758;52.218;5.172;2022-11-20T05:58:51;101147.59;;;-4.01;100.00
65173;BME280;51758;52.218;5.172;2022-11-20T06:01:21;101157.72;;;-4.00;100.00
65173;BME280;51758;52.218;5.172;2022-11-20T06:03:50;101163.56;;;-3.98;100.00
65173;BME280;51758;52.218;5.172;2022-11-20T06:06:19;101163.56;;;-3.98;100.00
65173;BME280;51758;52.218;5.172;2022-11-20T06:08:47;101167.78;;;-3.97;100.00
65173;BME280;51758;52.218;5.172;2022-11-20T06:11:15;101159.38;;;-3.99;100.00
65173;BME280;51758;52.218;5.172;2022-11-20T06:13:44;101161.03;;;-3.98;100.00
65173;BME280;51758;52.218;5.172;2022-11-20T06:16:14;101157.66;;;-3.98;100.00
65173;BME280;51758;52.218;5.172;2022-11-20T06:18:42;101153.75;;;-4.05;100.00
65173;BME280;51758;52.218;5.172;2022-11-20T06:21:14;101156.97;;;-4.02;100.00
65173;BME280;51758;52.218;5.172;2022-11-20T06:23:42;101140.19;;;-4.06;100.00
65173;BME280;51758;52.218;5.172;2022-11-20T06:26:13;101154.06;;;-3.94;100.00
65173;BME280;51758;52.218;5.172;2022-11-20T06:28:41;101139.13;;;-4.02;100.00
65173;BME280;51758;52.218;5.172;2022-11-20T06:31:11;101150.97;;;-4.01;100.00
65173;BME280;51758;52.218;5.172;2022-11-20T06:33:39;101162.97;;;-4.03;100.00
65173;BME280;51758;52.218;5.172;2022-11-20T06:36:07;101160.00;;;-4.11;100.00
65173;BME280;51758;52.218;5.172;2022-11-20T06:38:38;101153.59;;;-4.02;100.00
65173;BME280;51758;52.218;5.172;2022-11-20T06:41:07;101161.03;;;-3.98;100.00
65173;BME280;51758;52.218;5.172;2022-11-20T06:43:37;101157.56;;;-3.97;100.00
65173;BME280;51758;52.218;5.172;2022-11-20T06:46:05;101157.72;;;-4.00;100.00
65173;BME280;51758;52.218;5.172;2022-11-20T06:48:32;101157.56;;;-3.97;100.00
65173;BME280;51758;52.218;5.172;2022-11-20T06:51:02;101152.63;;;-4.00;100.00
65173;BME280;51758;52.218;5.172;2022-11-20T06:53:30;101104.22;;;-4.34;100.00
65173;BME280;51758;52.218;5.172;2022-11-20T06:55:59;101130.28;;;-4.12;100.00
65173;BME280;51758;52.218;5.172;2022-11-20T06:58:28;101140.78;;;-4.01;100.00
65173;BME280;51758;52.218;5.172;2022-11-20T07:00:58;101135.47;;;-4.13;100.00
65173;BME280;51758;52.218;5.172;2022-11-20T07:03:26;101138.63;;;-4.08;100.00
65173;BME280;51758;52.218;5.172;2022-11-20T07:05:54;101138.38;;;-4.04;100.00
65173;BME280;51758;52.218;5.172;2022-11-20T07:08:22;101129.91;;;-4.04;100.00
65173;BME280;51758;52.218;5.172;2022-11-20T07:10:50;101139.13;;;-4.02;100.00
65173;BME280;51758;52.218;5.172;2022-11-20T07:13:19;101136.44;;;-4.16;100.00
65173;BME280;51758;52.218;5.172;2022-11-20T07:15:46;101130.28;;;-4.12;100.00
65173;BME280;51758;52.218;5.172;2022-11-20T07:18:14;101114.78;;;-4.07;100.00
65173;BME280;51758;52.218;5.172;2022-11-20T07:20:42;101123.97;;;-4.05;100.00
65173;BME280;51758;52.218;5.172;2022-11-20T07:23:09;101124.66;;;-4.01;100.00
65173;BME280;51758;52.218;5.172;2022-11-20T07:25:37;101116.44;;;-3.90;100.00
65173;BME280;51758;52.218;5.172;2022-11-20T07:28:04;101115.38;;;-3.86;100.00
65173;BME280;51758;52.218;5.172;2022-11-20T07:30:34;101114.06;;;-3.93;100.00
65173;BME280;51758;52.218;5.172;2022-11-20T07:33:01;101118.00;;;-3.88;100.00
65173;BME280;51758;52.218;5.172;2022-11-20T07:35:29;101120.97;;;-3.80;100.00
65173;BME280;51758;52.218;5.172;2022-11-20T07:37:56;101119.09;;;-3.76;100.00
65173;BME280;51758;52.218;5.172;2022-11-20T07:40:24;101120.84;;;-3.77;100.00
65173;BME280;51758;52.218;5.172;2022-11-20T07:42:53;101107.88;;;-3.89;100.00
65173;BME280;51758;52.218;5.172;2022-11-20T07:45:23;101123.38;;;-3.77;100.00
65173;BME280;51758;52.218;5.172;2022-11-20T07:47:52;101125.63;;;-3.71;100.00
65173;BME280;51758;52.218;5.172;2022-11-20T07:50:20;101121.50;;;-3.73;100.00
65173;BME280;51758;52.218;5.172;2022-11-20T07:52:47;101132.13;;;-3.65;100.00
65173;BME280;51758;52.218;5.172;2022-11-20T07:55:15;101123.34;;;-3.44;100.00
65173;BME280;51758;52.218;5.172;2022-11-20T07:57:43;101097.25;;;-3.49;100.00
65173;BME280;51758;52.218;5.172;2022-11-20T08:00:12;101115.03;;;-3.32;100.00
65173;BME280;51758;52.218;5.172;2022-11-20T08:02:41;101116.84;;;-3.49;100.00
65173;BME280;51758;52.218;5.172;2022-11-20T08:05:10;101112.25;;;-3.43;100.00
65173;BME280;51758;52.218;5.172;2022-11-20T08:07:38;101105.06;;;-3.52;100.00
65173;BME280;51758;52.218;5.172;2022-11-20T08:10:07;101114.69;;;-3.57;100.00
65173;BME280;51758;52.218;5.172;2022-11-20T08:12:35;101100.78;;;-3.36;100.00
65173;BME280;51758;52.218;5.172;2022-11-20T08:15:21;101103.16;;;-3.48;100.00
65173;BME280;51758;52.218;5.172;2022-11-20T08:17:48;101107.34;;;-3.63;100.00
65173;BME280;51758;52.218;5.172;2022-11-20T08:20:38;101093.28;;;-3.23;100.00
65173;BME280;51758;52.218;5.172;2022-11-20T08:23:06;101086.28;;;-3.19;100.00
65173;BME280;51758;52.218;5.172;2022-11-20T08:25:34;101096.88;;;-2.96;100.00
65173;BME280;51758;52.218;5.172;2022-11-20T08:28:04;101092.75;;;-2.98;100.00
65173;BME280;51758;52.218;5.172;2022-11-20T08:30:45;101104.09;;;-2.88;100.00
65173;BME280;51758;52.218;5.172;2022-11-20T08:33:13;101102.97;;;-2.98;100.00
65173;BME280;51758;52.218;5.172;2022-11-20T08:35:42;101101.84;;;-2.78;100.00
65173;BME280;51758;52.218;5.172;2022-11-20T08:38:10;101101.44;;;-2.71;100.00
65173;BME280;51758;52.218;5.172;2022-11-20T08:40:37;101103.81;;;-2.68;100.00
65173;BME280;51758;52.218;5.172;2022-11-20T08:43:05;101096.00;;;-2.50;100.00
65173;BME280;51758;52.218;5.172;2022-11-20T08:45:33;101041.94;;;-2.59;100.00
65173;BME280;51758;52.218;5.172;2022-11-20T08:48:01;101089.28;;;-2.37;100.00
65173;BME280;51758;52.218;5.172;2022-11-20T08:50:29;101078.88;;;-2.20;100.00
65173;BME280;51758;52.218;5.172;2022-11-20T08:53:03;101094.97;;;-2.18;100.00
65173;BME280;51758;52.218;5.172;2022-11-20T08:55:31;101103.91;;;-2.25;100.00
65173;BME280;51758;52.218;5.172;2022-11-20T08:58:03;101097.69;;;-2.21;100.00
65173;BME280;51758;52.218;5.172;2022-11-20T09:00:31;101098.97;;;-2.28;100.00
65173;BME280;51758;52.218;5.172;2022-11-20T09:02:59;101110.50;;;-2.21;100.00
65173;BME280;51758;52.218;5.172;2022-11-20T09:05:28;101102.28;;;-2.12;100.00
65173;BME280;51758;52.218;5.172;2022-11-20T09:07:56;101099.06;;;-1.73;100.00
65173;BME280;51758;52.218;5.172;2022-11-20T09:10:25;101086.56;;;-1.92;100.00
65173;BME280;51758;52.218;5.172;2022-11-20T09:12:53;101066.88;;;-1.77;100.00
65173;BME280;51758;52.218;5.172;2022-11-20T09:15:22;101081.59;;;-1.52;100.00
65173;BME280;51758;52.218;5.172;2022-11-20T09:17:53;101074.50;;;-1.34;100.00
65173;BME280;51758;52.218;5.172;2022-11-20T09:20:21;101056.53;;;-1.61;100.00
65173;BME280;51758;52.218;5.172;2022-11-20T09:22:49;101064.16;;;-1.33;100.00
65173;BME280;51758;52.218;5.172;2022-11-20T09:25:16;101060.53;;;-1.43;100.00
65173;BME280;51758;52.218;5.172;2022-11-20T09:27:46;101054.22;;;-1.52;100.00
65173;BME280;51758;52.218;5.172;2022-11-20T09:30:15;101052.31;;;-1.48;100.00
65173;BME280;51758;52.218;5.172;2022-11-20T09:32:42;101049.97;;;-1.38;100.00
65173;BME280;51758;52.218;5.172;2022-11-20T09:35:10;101045.34;;;-1.46;100.00
65173;BME280;51758;52.218;5.172;2022-11-20T09:37:38;101041.47;;;-1.66;100.00
65173;BME280;51758;52.218;5.172;2022-11-20T09:40:08;101026.19;;;-1.53;100.00
65173;BME280;51758;52.218;5.172;2022-11-20T09:42:48;101046.06;;;-1.44;100.00
65173;BME280;51758;52.218;5.172;2022-11-20T09:45:24;101041.78;;;-1.43;100.00
65173;BME280;51758;52.218;5.172;2022-11-20T09:48:08;101030.06;;;-1.21;100.00
65173;BME280;51758;52.218;5.172;2022-11-20T09:50:43;101025.03;;;-1.22;100.00
65173;BME280;51758;52.218;5.172;2022-11-20T09:53:22;101013.03;;;-0.95;100.00
65173;BME280;51758;52.218;5.172;2022-11-20T09:55:54;101027.31;;;-0.65;100.00
65173;BME280;51758;52.218;5.172;2022-11-20T09:58:29;101019.94;;;-0.45;100.00
65173;BME280;51758;52.218;5.172;2022-11-20T10:01:09;101018.72;;;-0.52;100.00
65173;BME280;51758;52.218;5.172;2022-11-20T10:03:44;101017.66;;;-0.49;100.00
65173;BME280;51758;52.218;5.172;2022-11-20T10:06:17;101015.72;;;-0.58;100.00
65173;BME280;51758;52.218;5.172;2022-11-20T10:08:48;101010.41;;;-0.43;100.00
65173;BME280;51758;52.218;5.172;2022-11-20T10:11:28;100978.69;;;-0.67;100.00
65173;BME280;51758;52.218;5.172;2022-11-20T10:14:07;101005.97;;;-0.28;100.00
65173;BME280;51758;52.218;5.172;2022-11-20T10:16:40;101004.91;;;0.00;100.00
65173;BME280;51758;52.218;5.172;2022-11-20T10:19:23;100994.78;;;-0.14;100.00
65173;BME280;51758;52.218;5.172;2022-11-20T10:22:00;100976.31;;;0.17;100.00
65173;BME280;51758;52.218;5.172;2022-11-20T10:24:43;100987.94;;;0.10;100.00
65173;BME280;51758;52.218;5.172;2022-11-20T10:27:29;100982.03;;;-0.03;100.00
65173;BME280;51758;52.218;5.172;2022-11-20T10:30:03;100979.53;;;0.08;100.00
65173;BME280;51758;52.218;5.172;2022-11-20T10:32:35;100980.72;;;0.15;100.00
65173;BME280;51758;52.218;5.172;2022-11-20T10:35:09;100966.97;;;0.16;100.00
65173;BME280;51758;52.218;5.172;2022-11-20T10:37:44;100963.91;;;0.35;100.00
65173;BME280;51758;52.218;5.172;2022-11-20T10:40:20;100948.72;;;0.32;100.00
65173;BME280;51758;52.218;5.172;2022-11-20T10:42:52;100951.19;;;0.10;100.00
65173;BME280;51758;52.218;5.172;2022-11-20T10:45:34;100941.88;;;0.20;100.00
65173;BME280;51758;52.218;5.172;2022-11-20T10:48:14;100939.31;;;0.20;100.00
65173;BME280;51758;52.218;5.172;2022-11-20T10:50:54;100935.94;;;0.19;100.00
65173;BME280;51758;52.218;5.172;2022-11-20T10:53:42;100930.28;;;0.14;100.00
65173;BME280;51758;52.218;5.172;2022-11-20T10:56:17;100932.03;;;0.14;100.00
65173;BME280;51758;52.218;5.172;2022-11-20T10:58:54;100925.66;;;0.19;100.00
65173;BME280;51758;52.218;5.172;2022-11-20T11:01:29;100908.72;;;0.41;100.00
65173;BME280;51758;52.218;5.172;2022-11-20T11:03:56;100909.41;;;0.43;100.00
65173;BME280;51758;52.218;5.172;2022-11-20T11:06:28;100907.72;;;0.54;100.00
65173;BME280;51758;52.218;5.172;2022-11-20T11:09:02;100886.09;;;0.46;100.00
65173;BME280;51758;52.218;5.172;2022-11-20T11:11:33;100895.56;;;0.56;100.00
65173;BME280;51758;52.218;5.172;2022-11-20T11:14:05;100884.38;;;0.57;100.00
65173;BME280;51758;52.218;5.172;2022-11-20T11:16:35;100886.06;;;0.81;100.00
65173;BME280;51758;52.218;5.172;2022-11-20T11:19:04;100880.69;;;0.73;100.00
65173;BME280;51758;52.218;5.172;2022-11-20T11:21:33;100868.50;;;0.63;100.00
65173;BME280;51758;52.218;5.172;2022-11-20T11:24:04;100867.50;;;0.88;100.00
65173;BME280;51758;52.218;5.172;2022-11-20T11:26:56;100866.94;;;1.07;100.00
65173;BME280;51758;52.218;5.172;2022-11-20T11:29:25;100860.50;;;1.13;100.00
65173;BME280;51758;52.218;5.172;2022-11-20T11:32:05;100848.59;;;1.23;100.00
65173;BME280;51758;52.218;5.172;2022-11-20T11:34:34;100852.91;;;1.33;100.00
65173;BME280;51758;52.218;5.172;2022-11-20T11:37:02;100843.66;;;1.31;100.00
65173;BME280;51758;52.218;5.172;2022-11-20T11:39:32;100838.63;;;1.29;100.00
65173;BME280;51758;52.218;5.172;2022-11-20T11:42:00;100838.75;;;1.28;100.00
65173;BME280;51758;52.218;5.172;2022-11-20T11:44:31;100831.03;;;1.39;100.00
65173;BME280;51758;52.218;5.172;2022-11-20T11:47:22;100824.59;;;1.33;100.00
65173;BME280;51758;52.218;5.172;2022-11-20T11:50:01;100814.44;;;1.32;100.00
65173;BME280;51758;52.218;5.172;2022-11-20T11:52:30;100811.13;;;1.41;100.00
65173;BME280;51758;52.218;5.172;2022-11-20T11:55:01;100796.19;;;1.35;100.00
65173;BME280;51758;52.218;5.172;2022-11-20T11:57:41;100807.88;;;1.50;100.00
65173;BME280;51758;52.218;5.172;2022-11-20T12:00:14;100810.16;;;1.53;100.00
65173;BME280;51758;52.218;5.172;2022-11-20T12:02:53;100801.28;;;1.57;100.00
65173;BME280;51758;52.218;5.172;2022-11-20T12:05:25;100798.47;;;1.60;100.00
65173;BME280;51758;52.218;5.172;2022-11-20T12:07:57;100793.44;;;1.59;100.00
65173;BME280;51758;52.218;5.172;2022-11-20T12:10:45;100784.22;;;1.56;100.00
65173;BME280;51758;52.218;5.172;2022-11-20T12:13:34;100783.94;;;1.70;100.00
65173;BME280;51758;52.218;5.172;2022-11-20T12:16:03;100777.97;;;1.38;100.00
65173;BME280;51758;52.218;5.172;2022-11-20T12:18:33;100775.84;;;1.32;100.00
65173;BME280;51758;52.218;5.172;2022-11-20T12:21:09;100771.91;;;1.17;100.00
65173;BME280;51758;52.218;5.172;2022-11-20T12:23:45;100768.41;;;1.06;100.00
65173;BME280;51758;52.218;5.172;2022-11-20T12:26:19;100759.28;;;1.25;100.00
65173;BME280;51758;52.218;5.172;2022-11-20T12:28:58;100756.91;;;1.33;100.00
65173;BME280;51758;52.218;5.172;2022-11-20T12:31:52;100748.97;;;1.36;100.00
65173;BME280;51758;52.218;5.172;2022-11-20T12:34:43;100742.84;;;1.48;100.00
65173;BME280;51758;52.218;5.172;2022-11-20T12:37:19;100750.06;;;1.54;100.00
65173;BME280;51758;52.218;5.172;2022-11-20T12:39:50;100724.22;;;1.56;100.00
65173;BME280;51758;52.218;5.172;2022-11-20T12:45:42;100716.56;;;1.65;100.00
65173;BME280;51758;52.218;5.172;2022-11-20T12:48:30;100705.91;;;1.70;100.00
65173;BME280;51758;52.218;5.172;2022-11-20T12:51:16;100700.75;;;1.70;100.00
65173;BME280;51758;52.218;5.172;2022-11-20T12:53:58;100693.22;;;1.78;100.00
65173;BME280;51758;52.218;5.172;2022-11-20T12:56:33;100673.91;;;1.84;100.00
65173;BME280;51758;52.218;5.172;2022-11-20T12:59:16;100671.44;;;1.82;100.00
65173;BME280;51758;52.218;5.172;2022-11-20T13:01:51;100672.78;;;1.76;100.00
65173;BME280;51758;52.218;5.172;2022-11-20T13:04:41;100662.78;;;1.83;100.00